createdAt,value
2018-09-06T00:01:04.290Z,101702.04
2018-09-06T00:03:32.675Z,101702.45
2018-09-06T00:06:01.094Z,101697.20
2018-09-06T00:08:29.489Z,101695.83
2018-09-06T00:10:57.902Z,101695.78
2018-09-06T00:13:26.283Z,101699.62
2018-09-06T00:15:54.707Z,101696.98
2018-09-06T00:18:23.091Z,101696.47
2018-09-06T00:20:51.523Z,101695.99
2018-09-06T00:23:19.903Z,101699.87
2018-09-06T00:25:48.306Z,101701.59
2018-09-06T00:28:16.685Z,101702.86
2018-09-06T00:30:45.084Z,101696.33
2018-09-06T00:33:13.459Z,101701.09
2018-09-06T00:35:41.859Z,101704.09
2018-09-06T00:38:10.251Z,101698.37
2018-09-06T00:40:38.667Z,101693.50
2018-09-06T00:43:07.052Z,101693.88
2018-09-06T00:45:35.491Z,101690.77
2018-09-06T00:48:03.867Z,101693.83
2018-09-06T00:50:37.249Z,101685.95
2018-09-06T00:53:05.748Z,101687.27
2018-09-06T00:55:34.566Z,101687.75
2018-09-06T00:58:02.942Z,101678.20
2018-09-06T01:00:31.375Z,101676.05
2018-09-06T01:02:59.749Z,101686.12
2018-09-06T01:05:29.226Z,101677.87
2018-09-06T01:07:57.603Z,101676.19
2018-09-06T01:10:26.039Z,101675.34
2018-09-06T01:12:54.431Z,101669.27
2018-09-06T01:15:22.887Z,101668.39
2018-09-06T01:17:51.275Z,101671.05
2018-09-06T01:20:19.680Z,101668.46
2018-09-06T01:22:48.126Z,101666.77
2018-09-06T01:25:16.515Z,101666.79
2018-09-06T01:27:44.933Z,101668.16
2018-09-06T01:30:13.310Z,101661.63
2018-09-06T01:32:41.711Z,101665.58
2018-09-06T01:35:10.091Z,101661.68
2018-09-06T01:37:38.516Z,101654.72
2018-09-06T01:40:06.899Z,101652.12
2018-09-06T01:42:35.298Z,101653.48
2018-09-06T01:45:03.679Z,101650.92
2018-09-06T01:47:32.879Z,101650.50
2018-09-06T01:50:01.290Z,101651.82
2018-09-06T01:52:29.682Z,101651.84
2018-09-06T01:54:58.067Z,101651.86
2018-09-06T01:57:26.475Z,101649.27
2018-09-06T01:59:54.859Z,101643.61
2018-09-06T02:02:23.270Z,101646.25
2018-09-06T02:04:51.659Z,101649.31
2018-09-06T02:07:20.070Z,101644.55
2018-09-06T02:09:48.530Z,101648.05
2018-09-06T02:12:16.929Z,101645.87
2018-09-06T02:14:45.315Z,101644.56
2018-09-06T02:17:13.714Z,101638.89
2018-09-06T02:19:42.127Z,101643.27
2018-09-06T02:22:10.529Z,101638.47
2018-09-06T02:24:38.917Z,101640.24
2018-09-06T02:27:07.318Z,101639.34
2018-09-06T02:29:35.690Z,101639.36
2018-09-06T02:32:04.105Z,101633.25
2018-09-06T02:34:32.501Z,101627.61
2018-09-06T02:37:00.913Z,101633.25
2018-09-06T02:39:29.298Z,101627.56
2018-09-06T02:41:57.702Z,101629.73
2018-09-06T02:44:26.083Z,101627.13
2018-09-06T02:46:54.492Z,101622.30
2018-09-06T02:49:28.354Z,101624.89
2018-09-06T02:51:56.763Z,101618.77
2018-09-06T02:54:25.147Z,101621.84
2018-09-06T02:56:53.556Z,101618.33
2018-09-06T02:59:53.488Z,101615.71
2018-09-06T03:02:21.892Z,101614.38
2018-09-06T03:04:50.274Z,101622.64
2018-09-06T03:07:18.673Z,101622.19
2018-09-06T03:09:47.047Z,101620.88
2018-09-06T03:12:15.449Z,101609.11
2018-09-06T03:14:43.835Z,101613.48
2018-09-06T03:17:12.256Z,101609.10
2018-09-06T03:19:40.745Z,101612.56
2018-09-06T03:22:09.152Z,101610.41
2018-09-06T03:24:37.543Z,101610.81
2018-09-06T03:27:05.951Z,101608.20
2018-09-06T03:29:34.331Z,101607.35
2018-09-06T03:32:02.738Z,101605.63
2018-09-06T03:34:31.121Z,101599.11
2018-09-06T03:36:59.524Z,101596.93
2018-09-06T03:39:27.905Z,101596.53
2018-09-06T03:41:56.321Z,101595.24
2018-09-06T03:44:24.806Z,101597.89
2018-09-06T03:46:53.190Z,101594.84
2018-09-06T03:49:21.603Z,101597.91
2018-09-06T03:51:49.997Z,101596.64
2018-09-06T03:54:18.410Z,101592.73
2018-09-06T03:56:46.789Z,101593.60
2018-09-06T03:59:15.199Z,101590.98
2018-09-06T04:01:43.587Z,101589.25
2018-09-06T04:04:11.990Z,101592.33
2018-09-06T04:06:40.371Z,101586.20
2018-09-06T04:09:09.903Z,101584.04
2018-09-06T04:11:38.285Z,101591.49
2018-09-06T04:14:06.691Z,101586.70
2018-09-06T04:16:35.947Z,101592.39
2018-09-06T04:19:04.367Z,101590.66
2018-09-06T04:21:32.783Z,101585.41
2018-09-06T04:24:01.436Z,101590.20
2018-09-06T04:26:30.013Z,101588.50
2018-09-06T04:28:58.434Z,101579.76
2018-09-06T04:31:26.863Z,101579.34
2018-09-06T04:33:55.274Z,101579.78
2018-09-06T04:36:23.668Z,101580.67
2018-09-06T04:38:52.079Z,101578.48
2018-09-06T04:41:20.468Z,101582.85
2018-09-06T04:43:49.030Z,101580.67
2018-09-06T04:46:17.402Z,101575.45
2018-09-06T04:48:45.814Z,101576.34
2018-09-06T04:51:14.238Z,101580.70
2018-09-06T04:53:42.617Z,101581.56
2018-09-06T04:56:11.003Z,101584.20
2018-09-06T04:58:39.454Z,101573.70
2018-09-06T05:01:07.818Z,101575.45
2018-09-06T05:03:36.242Z,101584.60
2018-09-06T05:06:04.644Z,101590.71
2018-09-06T05:08:33.054Z,101589.84
2018-09-06T05:11:01.430Z,101591.15
2018-09-06T05:13:29.841Z,101588.97
2018-09-06T05:15:58.227Z,101587.66
2018-09-06T05:18:26.645Z,101589.42
2018-09-06T05:20:55.065Z,101590.75
2018-09-06T05:23:23.479Z,101588.54
2018-09-06T05:25:51.868Z,101586.37
2018-09-06T05:28:20.279Z,101588.55
2018-09-06T05:30:48.755Z,101584.62
2018-09-06T05:33:17.117Z,101585.95
2018-09-06T05:35:45.496Z,101583.34
2018-09-06T05:38:13.895Z,101582.89
2018-09-06T05:40:42.275Z,101575.47
2018-09-06T05:43:10.662Z,101575.92
2018-09-06T05:45:39.075Z,101573.28
2018-09-06T05:48:07.454Z,101573.75
2018-09-06T05:50:35.855Z,101578.12
2018-09-06T05:53:04.231Z,101575.06
2018-09-06T05:55:32.788Z,101571.59
2018-09-06T05:58:01.229Z,101571.16
2018-09-06T06:00:34.930Z,101579.95
2018-09-06T06:03:05.175Z,101575.16
2018-09-06T06:05:33.578Z,101568.14
2018-09-06T06:08:13.244Z,101567.29
2018-09-06T06:10:41.753Z,101565.11
2018-09-06T06:13:10.126Z,101569.92
2018-09-06T06:15:38.531Z,101564.70
2018-09-06T06:18:06.923Z,101571.27
2018-09-06T06:20:35.378Z,101572.14
2018-09-06T06:23:03.764Z,101572.58
2018-09-06T06:25:32.183Z,101547.23
2018-09-06T06:28:00.560Z,101569.52
2018-09-06T06:30:28.964Z,101559.91
2018-09-06T06:32:57.339Z,101561.67
2018-09-06T06:35:25.981Z,101555.53
2018-09-06T06:37:54.323Z,101556.86
2018-09-06T06:40:23.071Z,101550.73
2018-09-06T06:42:51.462Z,101550.28
2018-09-06T06:45:19.862Z,101548.55
2018-09-06T06:47:48.263Z,101547.66
2018-09-06T06:50:16.678Z,101548.95
2018-09-06T06:52:45.096Z,101554.63
2018-09-06T06:55:13.510Z,101548.94
2018-09-06T06:57:41.899Z,101549.38
2018-09-06T07:00:10.325Z,101550.27
2018-09-06T07:02:38.713Z,101550.27
2018-09-06T07:05:07.213Z,101559.45
2018-09-06T07:07:35.581Z,101555.94
2018-09-06T07:10:04.064Z,101557.27
2018-09-06T07:12:32.700Z,101559.89
2018-09-06T07:15:01.097Z,101557.27
2018-09-06T07:17:29.469Z,101559.02
2018-09-06T07:19:57.926Z,101558.14
2018-09-06T07:22:26.302Z,101562.95
2018-09-06T07:24:54.703Z,101563.83
2018-09-06T07:27:23.082Z,101565.13
2018-09-06T07:29:51.487Z,101564.69
2018-09-06T07:32:20.574Z,101568.60
2018-09-06T07:34:48.973Z,101562.47
2018-09-06T07:37:17.364Z,101562.45
2018-09-06T07:39:45.779Z,101559.37
2018-09-06T07:42:14.175Z,101558.95
2018-09-06T07:44:42.627Z,101562.86
2018-09-06T07:47:11.030Z,101561.11
2018-09-06T07:49:39.407Z,101558.48
2018-09-06T07:52:07.821Z,101556.75
2018-09-06T07:54:36.205Z,101553.67
2018-09-06T07:57:04.615Z,101551.45
2018-09-06T07:59:32.994Z,101556.27
2018-09-06T08:02:01.391Z,101554.08
2018-09-06T08:04:29.779Z,101554.51
2018-09-06T08:06:58.175Z,101555.80
2018-09-06T08:09:26.558Z,101562.37
2018-09-06T08:11:55.001Z,101553.62
2018-09-06T08:14:24.026Z,101554.94
2018-09-06T08:16:52.443Z,101552.31
2018-09-06T08:19:20.814Z,101554.04
2018-09-06T08:21:49.244Z,101554.46
2018-09-06T08:24:17.643Z,101562.81
2018-09-06T08:26:46.045Z,101557.13
2018-09-06T08:29:14.455Z,101555.37
2018-09-06T08:31:42.855Z,101558.87
2018-09-06T08:34:11.227Z,101561.94
2018-09-06T08:36:39.630Z,101555.39
2018-09-06T08:39:09.660Z,101554.50
2018-09-06T08:41:38.575Z,101552.77
2018-09-06T08:44:06.959Z,101559.75
2018-09-06T08:46:35.484Z,101565.45
2018-09-06T08:49:03.868Z,101555.81
2018-09-06T08:51:32.295Z,101553.20
2018-09-06T08:54:00.707Z,101551.41
2018-09-06T08:56:29.118Z,101552.28
2018-09-06T08:58:57.490Z,101549.63
2018-09-06T09:01:31.317Z,101556.15
2018-09-06T09:03:59.693Z,101544.28
2018-09-06T09:06:28.157Z,101541.18
2018-09-06T09:08:56.639Z,101542.50
2018-09-06T09:11:25.063Z,101537.64
2018-09-06T09:13:53.437Z,101538.50
2018-09-06T09:16:21.850Z,101537.55
2018-09-06T09:18:50.237Z,101536.59
2018-09-06T09:21:18.740Z,101532.59
2018-09-06T09:23:47.114Z,101534.73
2018-09-06T09:26:15.523Z,101529.41
2018-09-06T09:28:43.889Z,101531.08
2018-09-06T09:31:12.278Z,101528.34
2018-09-06T09:33:40.645Z,101530.48
2018-09-06T09:36:09.051Z,101523.83
2018-09-06T09:38:37.427Z,101521.56
2018-09-06T09:41:06.114Z,101518.88
2018-09-06T09:43:34.501Z,101515.75
2018-09-06T09:48:30.371Z,101515.56
2018-09-06T09:50:58.750Z,101507.98
2018-09-06T09:53:27.150Z,101505.20
2018-09-06T09:55:55.534Z,101495.41
2018-09-06T09:58:23.939Z,101495.66
2018-09-06T10:00:52.319Z,101491.09
2018-09-06T10:03:26.143Z,101486.99
2018-09-06T10:05:59.716Z,101486.47
2018-09-06T10:08:34.334Z,101483.30
2018-09-06T10:11:02.723Z,101489.84
2018-09-06T10:13:31.122Z,101482.27
2018-09-06T10:15:59.514Z,101475.47
2018-09-06T10:18:28.056Z,101471.83
2018-09-06T10:20:56.455Z,101483.66
2018-09-06T10:23:25.070Z,101480.42
2018-09-06T10:25:53.454Z,101476.83
2018-09-06T10:28:21.862Z,101473.27
2018-09-06T10:30:50.254Z,101467.13
2018-09-06T10:33:18.663Z,101473.33
2018-09-06T10:35:47.042Z,101466.83
2018-09-06T10:38:15.434Z,101463.80
2018-09-06T10:40:43.898Z,101457.71
2018-09-06T10:43:12.249Z,101451.98
2018-09-06T10:45:40.755Z,101453.22
2018-09-06T10:48:09.170Z,101455.72
2018-09-06T10:50:37.547Z,101453.43
2018-09-06T10:53:05.937Z,101448.47
2018-09-06T10:55:34.362Z,101448.91
2018-09-06T10:58:02.844Z,101456.30
2018-09-06T11:00:31.278Z,101446.58
2018-09-06T11:03:00.055Z,101440.42
2018-09-06T11:05:28.470Z,101431.58
2018-09-06T11:07:56.907Z,101435.45
2018-09-06T11:10:25.323Z,101431.03
2018-09-06T11:12:53.722Z,101429.64
2018-09-06T11:15:22.130Z,101426.05
2018-09-06T11:17:50.525Z,101425.91
2018-09-06T11:20:18.965Z,101413.44
2018-09-06T11:22:47.437Z,101414.60
2018-09-06T11:25:15.829Z,101410.90
2018-09-06T11:27:44.309Z,101405.45
2018-09-06T11:30:12.651Z,101408.77
2018-09-06T11:32:41.035Z,101404.22
2018-09-06T11:35:09.435Z,101396.67
2018-09-06T11:37:37.811Z,101404.96
2018-09-06T11:40:06.285Z,101404.05
2018-09-06T11:42:34.669Z,101401.73
2018-09-06T11:45:03.089Z,101391.98
2018-09-06T11:47:31.509Z,101393.22
2018-09-06T11:50:00.003Z,101391.82
2018-09-06T11:52:28.417Z,101392.30
2018-09-06T11:54:56.814Z,101385.39
2018-09-06T11:57:25.194Z,101390.30
2018-09-06T11:59:53.594Z,101381.43
2018-09-06T12:02:21.983Z,101388.85
2018-09-06T12:04:50.398Z,101386.05
2018-09-06T12:07:18.806Z,101383.25
2018-09-06T12:09:47.278Z,101391.83
2018-09-06T12:12:15.651Z,101384.59
2018-09-06T12:14:44.050Z,101385.27
2018-09-06T12:17:12.418Z,101381.59
2018-09-06T12:19:40.815Z,101378.45
2018-09-06T12:22:09.251Z,101373.16
2018-09-06T12:24:37.651Z,101364.45
2018-09-06T12:27:06.021Z,101363.05
2018-09-06T12:29:34.426Z,101355.05
2018-09-06T12:32:02.806Z,101350.96
2018-09-06T12:34:31.207Z,101346.02
2018-09-06T12:36:59.583Z,101342.36
2018-09-06T12:39:27.995Z,101345.90
2018-09-06T12:41:56.374Z,101343.19
2018-09-06T12:44:24.778Z,101344.89
2018-09-06T12:46:53.163Z,101335.59
2018-09-06T12:49:21.835Z,101338.55
2018-09-06T12:51:50.214Z,101325.66
2018-09-06T12:54:18.622Z,101331.72
2018-09-06T12:56:46.999Z,101327.75
2018-09-06T12:59:15.426Z,101321.63
2018-09-06T13:01:43.859Z,101323.78
2018-09-06T13:04:12.267Z,101328.19
2018-09-06T13:06:40.738Z,101321.56
2018-09-06T13:09:09.427Z,101307.81
2018-09-06T13:11:38.343Z,101312.61
2018-09-06T13:14:06.730Z,101314.20
2018-09-06T13:16:35.303Z,101314.14
2018-09-06T13:19:03.966Z,101308.39
2018-09-06T13:21:32.777Z,101307.92
2018-09-06T13:24:01.161Z,101300.81
2018-09-06T13:26:29.559Z,101291.08
2018-09-06T13:28:57.934Z,101290.55
2018-09-06T13:31:26.351Z,101291.28
2018-09-06T13:33:54.723Z,101289.03
2018-09-06T13:36:23.113Z,101288.08
2018-09-06T13:38:51.597Z,101285.76
2018-09-06T13:41:19.990Z,101280.36
2018-09-06T13:43:48.368Z,101282.38
2018-09-06T13:46:16.836Z,101269.86
2018-09-06T13:48:45.206Z,101270.13
2018-09-06T13:51:13.599Z,101271.80
2018-09-06T13:53:41.979Z,101269.45
2018-09-06T13:56:10.427Z,101260.50
2018-09-06T13:58:38.959Z,101264.77
2018-09-06T14:01:07.358Z,101259.42
2018-09-06T14:03:35.728Z,101255.34
2018-09-06T14:06:04.227Z,101249.19
2018-09-06T14:08:32.593Z,101245.68
2018-09-06T14:11:01.041Z,101241.70
2018-09-06T14:13:29.521Z,101246.94
2018-09-06T14:15:57.910Z,101228.95
2018-09-06T14:18:26.290Z,101231.61
2018-09-06T14:20:54.701Z,101225.45
2018-09-06T14:23:23.079Z,101224.98
2018-09-06T14:25:51.478Z,101212.55
2018-09-06T14:28:19.863Z,101216.92
2018-09-06T14:30:48.266Z,101210.66
2018-09-06T14:33:16.658Z,101216.03
2018-09-06T14:35:45.140Z,101208.98
2018-09-06T14:38:13.827Z,101208.98
2018-09-06T14:40:42.170Z,101209.91
2018-09-06T14:43:10.550Z,101215.70
2018-09-06T14:45:38.965Z,101207.72
2018-09-06T14:48:07.342Z,101215.56
2018-09-06T14:50:35.739Z,101214.17
2018-09-06T14:53:04.127Z,101212.30
2018-09-06T14:55:32.521Z,101212.70
2018-09-06T14:58:00.964Z,101206.42
2018-09-06T15:00:29.387Z,101201.55
2018-09-06T15:02:57.757Z,101202.87
2018-09-06T15:05:26.139Z,101201.55
2018-09-06T15:07:54.586Z,101194.03
2018-09-06T15:10:22.950Z,101190.48
2018-09-06T15:12:51.359Z,101187.38
2018-09-06T15:15:19.778Z,101178.56
2018-09-06T15:17:48.190Z,101179.42
2018-09-06T15:20:16.584Z,101182.07
2018-09-06T15:22:44.988Z,101177.27
2018-09-06T15:25:13.370Z,101175.09
2018-09-06T15:27:41.821Z,101169.83
2018-09-06T15:30:10.191Z,101163.74
2018-09-06T15:32:38.585Z,101160.20
2018-09-06T15:35:07.215Z,101158.02
2018-09-06T15:37:35.654Z,101151.00
2018-09-06T15:40:04.042Z,101155.44
2018-09-06T15:42:32.454Z,101146.24
2018-09-06T15:45:00.831Z,101146.31
2018-09-06T15:47:29.225Z,101147.21
2018-09-06T15:49:57.612Z,101143.78
2018-09-06T15:52:26.059Z,101137.19
2018-09-06T15:54:54.473Z,101134.15
2018-09-06T15:57:22.895Z,101131.54
2018-09-06T15:59:51.269Z,101130.25
2018-09-06T16:02:19.671Z,101132.11
2018-09-06T16:04:48.047Z,101132.98
2018-09-06T16:07:16.479Z,101124.17
2018-09-06T16:09:44.917Z,101125.03
2018-09-06T16:12:13.356Z,101120.20
2018-09-06T16:14:41.715Z,101120.20
2018-09-06T16:17:10.114Z,101114.48
2018-09-06T16:19:38.499Z,101119.34
2018-09-06T16:22:06.930Z,101115.37
2018-09-06T16:24:35.333Z,101121.52
2018-09-06T16:27:03.796Z,101110.46
2018-09-06T16:29:32.169Z,101110.00
2018-09-06T16:32:00.575Z,101112.72
2018-09-06T16:34:28.951Z,101107.85
2018-09-06T16:36:57.402Z,101109.72
2018-09-06T16:39:25.758Z,101108.08
2018-09-06T16:41:54.154Z,101104.21
2018-09-06T16:44:22.642Z,101096.30
2018-09-06T16:46:51.062Z,101105.39
2018-09-06T16:49:20.478Z,101113.58
2018-09-06T16:51:48.875Z,101112.13
2018-09-06T16:54:17.259Z,101110.38
2018-09-06T16:56:45.671Z,101111.58
2018-09-06T16:59:14.045Z,101112.77
2018-09-06T17:01:42.423Z,101121.27
2018-09-06T17:04:10.825Z,101113.42
2018-09-06T17:06:39.217Z,101121.03
2018-09-06T17:09:08.331Z,101117.11
2018-09-06T17:11:36.837Z,101122.13
2018-09-06T17:14:05.268Z,101114.71
2018-09-06T17:16:33.884Z,101124.00
2018-09-06T17:19:02.290Z,101118.25
2018-09-06T17:21:30.716Z,101122.60
2018-09-06T17:23:59.123Z,101127.31
2018-09-06T17:26:27.523Z,101136.38
2018-09-06T17:28:55.954Z,101137.06
2018-09-06T17:31:24.495Z,101131.17
2018-09-06T17:33:52.961Z,101140.09
2018-09-06T17:36:21.351Z,101135.05
2018-09-06T17:38:49.881Z,101130.41
2018-09-06T17:41:18.226Z,101132.37
2018-09-06T17:43:46.714Z,101137.37
2018-09-06T17:46:15.107Z,101134.47
2018-09-06T17:48:43.539Z,101137.28
2018-09-06T17:51:11.948Z,101133.94
2018-09-06T17:53:40.350Z,101137.55
2018-09-06T17:56:08.726Z,101135.92
2018-09-06T17:58:37.161Z,101139.56
2018-09-06T18:01:19.069Z,101135.30
2018-09-06T18:03:47.479Z,101135.00
2018-09-06T18:06:16.381Z,101130.30
2018-09-06T18:08:44.803Z,101133.48
2018-09-06T18:11:13.336Z,101134.84
2018-09-06T18:13:41.911Z,101131.89
2018-09-06T18:16:10.583Z,101136.34
2018-09-06T18:18:39.027Z,101138.20
2018-09-06T18:21:07.439Z,101144.38
2018-09-06T18:23:35.899Z,101139.58
2018-09-06T18:26:04.269Z,101139.24
2018-09-06T18:28:32.899Z,101142.80
2018-09-06T18:31:01.476Z,101142.84
2018-09-06T18:33:29.945Z,101134.16
2018-09-06T18:35:58.638Z,101132.10
2018-09-06T18:38:27.712Z,101129.61
2018-09-06T18:40:56.186Z,101138.91
2018-09-06T18:43:24.588Z,101133.73
2018-09-06T18:45:52.979Z,101135.11
2018-09-06T18:48:21.383Z,101134.31
2018-09-06T18:50:49.803Z,101124.71
2018-09-06T18:53:18.205Z,101127.07
2018-09-06T18:55:46.582Z,101095.34
2018-09-06T18:58:14.983Z,101136.28
2018-09-06T19:00:43.367Z,101131.95
2018-09-06T19:03:12.530Z,101138.57
2018-09-06T19:05:41.139Z,101137.38
2018-09-06T19:08:09.841Z,101135.69
2018-09-06T19:10:38.257Z,101135.78
2018-09-06T19:13:06.879Z,101134.95
2018-09-06T19:15:35.267Z,101130.66
2018-09-06T19:18:03.818Z,101134.66
2018-09-06T19:20:32.258Z,101134.72
2018-09-06T19:23:00.658Z,101135.19
2018-09-06T19:25:29.071Z,101133.08
2018-09-06T19:27:57.476Z,101135.34
2018-09-06T19:30:25.894Z,101134.55
2018-09-06T19:32:54.445Z,101127.12
2018-09-06T19:35:22.854Z,101129.36
2018-09-06T19:37:51.235Z,101116.72
2018-09-06T19:40:19.626Z,101119.41
2018-09-06T19:42:48.001Z,101116.42
2018-09-06T19:45:16.407Z,101112.08
2018-09-06T19:47:44.785Z,101109.06
2018-09-06T19:50:13.235Z,101111.73
2018-09-06T19:52:41.780Z,101106.98
2018-09-06T19:55:10.282Z,101109.66
2018-09-06T19:57:38.718Z,101109.23
2018-09-06T20:00:07.722Z,101107.06
2018-09-06T20:02:36.091Z,101112.77
2018-09-06T20:05:04.521Z,101112.37
2018-09-06T20:07:32.897Z,101106.26
2018-09-06T20:10:01.306Z,101112.86
2018-09-06T20:12:29.688Z,101109.84
2018-09-06T20:14:58.099Z,101106.39
2018-09-06T20:17:26.470Z,101106.85
2018-09-06T20:19:54.864Z,101101.64
2018-09-06T20:22:23.262Z,101107.80
2018-09-06T20:24:51.666Z,101103.05
2018-09-06T20:27:20.045Z,101099.56
2018-09-06T20:29:48.442Z,101093.91
2018-09-06T20:32:16.818Z,101097.44
2018-09-06T20:34:45.215Z,101095.27
2018-09-06T20:37:13.585Z,101092.23
2018-09-06T20:39:41.991Z,101087.02
2018-09-06T20:42:10.370Z,101085.75
2018-09-06T20:44:38.775Z,101091.01
2018-09-06T20:47:07.154Z,101086.25
2018-09-06T20:49:35.559Z,101094.13
2018-09-06T20:52:03.948Z,101092.86
2018-09-06T20:54:32.351Z,101095.48
2018-09-06T20:57:00.722Z,101096.80
2018-09-06T20:59:29.122Z,101097.70
2018-09-06T21:02:01.658Z,101087.69
2018-09-06T21:04:30.063Z,101092.08
2018-09-06T21:06:58.561Z,101082.89
2018-09-06T21:09:26.958Z,101077.23
2018-09-06T21:11:55.375Z,101082.03
2018-09-06T21:14:23.825Z,101082.48
2018-09-06T21:16:52.211Z,101082.94
2018-09-06T21:19:20.592Z,101079.90
2018-09-06T21:21:49.040Z,101079.48
2018-09-06T21:24:17.523Z,101079.49
2018-09-06T21:26:45.922Z,101081.70
2018-09-06T21:29:14.302Z,101080.39
2018-09-06T21:31:42.689Z,101084.78
2018-09-06T21:34:11.067Z,101079.12
2018-09-06T21:36:39.484Z,101071.70
2018-09-06T21:39:09.863Z,101078.29
2018-09-06T21:41:38.370Z,101072.19
2018-09-06T21:44:07.190Z,101069.98
2018-09-06T21:46:35.611Z,101075.27
2018-09-06T21:49:03.978Z,101071.78
2018-09-06T21:51:32.383Z,101078.38
2018-09-06T21:54:00.762Z,101077.52
2018-09-06T21:56:29.192Z,101081.90
2018-09-06T21:58:57.566Z,101071.02
2018-09-06T22:01:25.966Z,101069.30
2018-09-06T22:03:59.597Z,101069.33
2018-09-06T22:06:28.025Z,101067.19
2018-09-06T22:08:56.526Z,101066.78
2018-09-06T22:11:24.955Z,101064.16
2018-09-06T22:13:53.321Z,101062.88
2018-09-06T22:16:21.730Z,101062.50
2018-09-06T22:18:50.110Z,101059.48
2018-09-06T22:21:18.687Z,101059.97
2018-09-06T22:23:47.126Z,101057.79
2018-09-06T22:26:15.530Z,101052.58
2018-09-06T22:28:43.987Z,101053.92
2018-09-06T22:31:12.379Z,101053.50
2018-09-06T22:33:40.757Z,101051.80
2018-09-06T22:36:09.162Z,101048.76
2018-09-06T22:38:37.543Z,101043.55
2018-09-06T22:41:06.056Z,101049.65
2018-09-06T22:43:34.438Z,101045.30
2018-09-06T22:46:03.203Z,101040.50
2018-09-06T22:48:31.968Z,101042.26
2018-09-06T22:51:00.675Z,101039.66
2018-09-06T22:53:29.112Z,101031.83
2018-09-06T22:55:57.697Z,101027.90
2018-09-06T22:58:26.075Z,101028.38
2018-09-06T23:00:54.466Z,101024.44
2018-09-06T23:03:28.135Z,101025.77
2018-09-06T23:05:56.525Z,101015.29
2018-09-06T23:08:24.929Z,101010.49
2018-09-06T23:10:53.338Z,100996.55
2018-09-06T23:13:21.723Z,101007.03
2018-09-06T23:15:50.117Z,101010.09
2018-09-06T23:18:18.499Z,101003.98
2018-09-06T23:20:46.999Z,101008.39
2018-09-06T23:23:15.374Z,101000.97
2018-09-06T23:25:43.785Z,101003.20
2018-09-06T23:28:12.177Z,101001.02
2018-09-06T23:30:40.564Z,101001.48
2018-09-06T23:33:09.078Z,100998.44
2018-09-06T23:35:37.455Z,100997.59
2018-09-06T23:38:05.878Z,101003.27
2018-09-06T23:40:38.890Z,100998.48
2018-09-06T23:43:07.735Z,100994.57
2018-09-06T23:45:36.109Z,100990.22
2018-09-06T23:48:04.663Z,100988.95
2018-09-06T23:50:33.038Z,100993.77
2018-09-06T23:53:01.439Z,100987.21
2018-09-06T23:55:29.817Z,100986.37
2018-09-06T23:57:58.209Z,100988.98
